createdAt,value
2023-04-02T00:00:17.655Z,77.15
2023-04-02T00:05:49.526Z,77.14
2023-04-02T00:10:55.192Z,77.13
2023-04-02T00:15:59.986Z,77.04
2023-04-02T00:21:11.853Z,77.01
2023-04-02T00:26:37.784Z,77.13
2023-04-02T00:31:44.885Z,77.17
2023-04-02T00:36:50.945Z,77.10
2023-04-02T00:42:04.546Z,77.01
2023-04-02T00:47:16.559Z,77.10
2023-04-02T00:52:24.789Z,77.08
2023-04-02T00:57:29.484Z,77.06
2023-04-02T01:02:37.786Z,77.13
2023-04-02T01:08:00.936Z,77.01
2023-04-02T01:13:19.409Z,77.01
2023-04-02T01:18:36.273Z,76.95
2023-04-02T01:23:52.300Z,77.11
2023-04-02T01:29:03.055Z,76.98
2023-04-02T01:34:09.761Z,77.09
2023-04-02T01:39:26.839Z,76.97
2023-04-02T01:44:35.817Z,76.95
2023-04-02T01:49:42.037Z,76.97
2023-04-02T01:54:47.207Z,76.98
2023-04-02T01:59:51.777Z,76.94
2023-04-02T02:04:55.888Z,77.11
2023-04-02T02:09:59.843Z,77.04
2023-04-02T02:15:04.424Z,76.90
2023-04-02T02:20:10.833Z,76.75
2023-04-02T02:25:18.274Z,76.79
2023-04-02T02:30:26.467Z,76.67
2023-04-02T02:35:35.342Z,76.55
2023-04-02T02:40:44.933Z,76.67
2023-04-02T02:45:50.837Z,76.59
2023-04-02T02:50:56.182Z,76.67
2023-04-02T02:56:01.384Z,76.71
2023-04-02T03:01:12.967Z,76.62
2023-04-02T03:06:20.122Z,76.51
2023-04-02T03:11:34.729Z,76.62
2023-04-02T03:16:43.666Z,76.62
2023-04-02T03:21:52.705Z,76.38
2023-04-02T03:27:01.445Z,76.52
2023-04-02T03:32:11.735Z,76.45
2023-04-02T03:37:20.517Z,76.43
2023-04-02T03:42:25.761Z,76.38
2023-04-02T03:47:34.791Z,76.58
2023-04-02T03:52:38.985Z,76.61
2023-04-02T03:57:53.908Z,76.57
2023-04-02T04:03:04.426Z,76.68
2023-04-02T04:08:14.047Z,76.62
2023-04-02T04:13:23.550Z,76.61
2023-04-02T04:18:37.348Z,76.68
2023-04-02T04:23:50.954Z,76.63
2023-04-02T04:29:05.795Z,76.64
2023-04-02T04:34:17.646Z,76.59
2023-04-02T04:39:29.515Z,76.69
2023-04-02T04:44:40.358Z,76.70
2023-04-02T04:49:49.414Z,76.67
2023-04-02T04:54:53.576Z,76.76
2023-04-02T05:00:07.456Z,76.81
2023-04-02T05:05:20.966Z,76.74
2023-04-02T05:10:33.199Z,76.84
2023-04-02T05:15:43.531Z,76.84
2023-04-02T05:20:53.423Z,76.85
2023-04-02T05:26:06.501Z,76.74
2023-04-02T05:31:16.952Z,76.78
2023-04-02T05:36:22.753Z,76.84
2023-04-02T05:41:36.307Z,76.70
2023-04-02T05:46:49.264Z,76.88
2023-04-02T05:51:57.902Z,76.89
2023-04-02T05:57:04.599Z,76.81
2023-04-02T06:02:19.110Z,76.80
2023-04-02T06:07:27.865Z,76.79
2023-04-02T06:12:42.059Z,76.68
2023-04-02T06:17:51.121Z,76.86
2023-04-02T06:23:00.474Z,76.78
2023-04-02T06:28:11.919Z,76.77
2023-04-02T06:33:24.829Z,76.70
2023-04-02T06:38:31.570Z,76.57
2023-04-02T06:43:45.919Z,76.49
2023-04-02T06:49:01.810Z,76.74
2023-04-02T06:54:05.913Z,76.66
2023-04-02T06:59:14.427Z,76.67
2023-04-02T07:04:32.681Z,76.49
2023-04-02T07:09:37.714Z,76.57
2023-04-02T07:14:43.518Z,76.65
2023-04-02T07:19:49.130Z,76.64
2023-04-02T07:24:55.067Z,76.43
2023-04-02T07:29:58.845Z,76.49
2023-04-02T07:35:03.358Z,76.34
2023-04-02T07:40:17.366Z,76.40
2023-04-02T07:45:22.673Z,76.45
2023-04-02T07:50:30.475Z,76.39
2023-04-02T07:55:34.673Z,76.46
2023-04-02T08:00:38.798Z,76.46
2023-04-02T08:05:42.723Z,76.22
2023-04-02T08:10:46.500Z,76.34
2023-04-02T08:15:50.439Z,76.30
2023-04-02T08:20:54.349Z,76.05
2023-04-02T08:25:58.219Z,76.01
2023-04-02T08:31:04.105Z,76.12
2023-04-02T08:36:14.658Z,76.01
2023-04-02T08:41:27.428Z,75.99
2023-04-02T08:46:37.322Z,76.13
2023-04-02T08:51:41.295Z,76.15
2023-04-02T08:56:52.068Z,76.01
2023-04-02T09:02:03.925Z,76.05
2023-04-02T09:07:14.179Z,76.05
2023-04-02T09:12:20.675Z,75.88
2023-04-02T09:17:27.632Z,75.79
2023-04-02T09:22:38.008Z,75.59
2023-04-02T09:27:42.772Z,75.30
2023-04-02T09:32:50.585Z,75.44
2023-04-02T09:38:16.858Z,75.41
2023-04-02T09:43:22.357Z,75.38
2023-04-02T09:48:30.156Z,75.21
2023-04-02T09:53:37.930Z,75.09
2023-04-02T09:58:44.034Z,75.14
2023-04-02T10:03:48.082Z,74.77
2023-04-02T10:08:52.314Z,74.83
2023-04-02T10:14:00.474Z,74.85
2023-04-02T10:19:07.164Z,74.62
2023-04-02T10:24:13.867Z,74.67
2023-04-02T10:29:34.906Z,74.58
2023-04-02T10:34:47.421Z,74.58
2023-04-02T10:39:56.721Z,74.45
2023-04-02T10:45:05.530Z,74.35
2023-04-02T10:50:26.132Z,74.15
2023-04-02T10:55:33.917Z,74.08
2023-04-02T11:00:43.595Z,74.28
2023-04-02T11:05:49.742Z,74.16
2023-04-02T11:10:58.778Z,73.95
2023-04-02T11:16:03.733Z,73.80
2023-04-02T11:21:31.444Z,73.63
2023-04-02T11:26:41.015Z,73.54
2023-04-02T11:31:46.116Z,73.69
2023-04-02T11:37:07.907Z,73.54
2023-04-02T11:42:32.452Z,73.36
2023-04-02T11:47:36.235Z,73.15
2023-04-02T11:52:52.518Z,73.00
2023-04-02T11:58:30.263Z,73.07
2023-04-02T12:03:58.664Z,72.98
2023-04-02T12:09:18.121Z,72.94
2023-04-02T12:14:45.903Z,72.57
2023-04-02T12:19:52.987Z,72.48
2023-04-02T12:25:04.125Z,72.39
2023-04-02T12:30:18.138Z,72.25
2023-04-02T12:35:33.523Z,72.07
2023-04-02T12:40:37.444Z,71.77
2023-04-02T12:45:41.526Z,71.93
2023-04-02T12:50:45.483Z,71.77
2023-04-02T12:55:50.859Z,71.37
2023-04-02T13:01:12.452Z,71.30
2023-04-02T13:06:25.916Z,71.48
2023-04-02T13:11:37.810Z,71.40
2023-04-02T13:16:41.918Z,71.09
2023-04-02T13:21:46.686Z,71.01
2023-04-02T13:26:53.601Z,70.73
2023-04-02T13:31:59.783Z,70.76
2023-04-02T13:37:03.687Z,70.42
2023-04-02T13:42:11.194Z,70.02
2023-04-02T13:47:16.632Z,70.17
2023-04-02T13:52:20.375Z,70.01
2023-04-02T13:57:24.401Z,70.04
2023-04-02T14:02:29.719Z,69.90
2023-04-02T14:07:54.701Z,69.84
2023-04-02T14:13:12.249Z,69.78
2023-04-02T14:18:40.807Z,69.53
2023-04-02T14:24:01.074Z,69.19
2023-04-02T14:29:11.349Z,68.91
2023-04-02T14:34:26.609Z,68.59
2023-04-02T14:39:42.174Z,68.25
2023-04-02T14:44:52.875Z,68.62
2023-04-02T14:50:02.703Z,68.48
2023-04-02T14:55:14.397Z,67.67
2023-04-02T15:00:32.800Z,67.29
2023-04-02T15:05:43.823Z,67.41
2023-04-02T15:11:01.944Z,67.07
2023-04-02T15:16:14.568Z,67.17
2023-04-02T15:21:49.833Z,67.09
2023-04-02T15:27:24.503Z,67.11
2023-04-02T15:32:40.265Z,66.98
2023-04-02T15:37:52.094Z,66.94
2023-04-02T15:43:07.619Z,66.30
2023-04-02T15:48:48.737Z,66.43
2023-04-02T15:54:01.831Z,66.08
2023-04-02T15:59:29.776Z,65.88
2023-04-02T16:04:45.754Z,66.02
2023-04-02T16:09:57.712Z,65.95
2023-04-02T16:15:14.407Z,65.94
2023-04-02T16:20:23.547Z,65.79
2023-04-02T16:25:31.582Z,65.63
2023-04-02T16:30:38.921Z,65.50
2023-04-02T16:35:56.257Z,65.71
2023-04-02T16:41:09.428Z,65.57
2023-04-02T16:46:38.364Z,65.55
2023-04-02T16:51:52.450Z,65.60
2023-04-02T16:57:16.727Z,65.39
2023-04-02T17:02:42.584Z,65.52
2023-04-02T17:07:52.312Z,65.17
2023-04-02T17:13:06.019Z,65.03
2023-04-02T17:18:17.121Z,64.89
2023-04-02T17:23:22.377Z,64.87
2023-04-02T17:28:36.187Z,64.85
2023-04-02T17:33:40.249Z,64.92
2023-04-02T17:38:52.876Z,64.76
2023-04-02T17:44:05.369Z,64.56
2023-04-02T17:49:24.467Z,64.53
2023-04-02T17:54:42.970Z,64.63
2023-04-02T18:00:11.836Z,64.62
2023-04-02T18:05:28.812Z,64.56
2023-04-02T18:10:38.621Z,64.69
2023-04-02T18:16:06.467Z,64.64
2023-04-02T18:21:21.403Z,64.67
2023-04-02T18:26:38.087Z,64.60
2023-04-02T18:31:50.208Z,64.61
2023-04-02T18:37:05.471Z,64.54
2023-04-02T18:42:19.208Z,64.58
2023-04-02T18:47:30.597Z,64.59
2023-04-02T18:52:35.681Z,64.64
2023-04-02T18:57:42.847Z,64.53
2023-04-02T19:02:50.842Z,64.57
2023-04-02T19:08:06.345Z,64.61
2023-04-02T19:13:30.394Z,64.79
2023-04-02T19:19:07.357Z,64.78
2023-04-02T19:24:35.764Z,64.93
2023-04-02T19:29:58.594Z,64.97
2023-04-02T19:35:22.093Z,64.96
2023-04-02T19:40:40.168Z,65.07
2023-04-02T19:45:52.274Z,65.11
2023-04-02T19:50:56.199Z,65.10
2023-04-02T19:56:02.115Z,65.23
2023-04-02T20:01:07.264Z,65.24
2023-04-02T20:06:11.536Z,65.43
2023-04-02T20:11:15.897Z,65.43
2023-04-02T20:16:22.914Z,65.51
2023-04-02T20:21:27.048Z,65.68
2023-04-02T20:26:30.859Z,65.63
2023-04-02T20:31:36.010Z,65.70
2023-04-02T20:36:39.823Z,65.84
2023-04-02T20:41:43.623Z,65.83
2023-04-02T20:46:48.687Z,65.79
2023-04-02T20:51:56.102Z,65.89
2023-04-02T20:57:00.226Z,66.06
2023-04-02T21:02:06.827Z,66.02
2023-04-02T21:07:10.936Z,66.03
2023-04-02T21:12:16.225Z,66.00
2023-04-02T21:17:20.072Z,66.09
2023-04-02T21:22:24.128Z,66.11
2023-04-02T21:27:34.750Z,66.16
2023-04-02T21:32:39.077Z,66.15
2023-04-02T21:37:44.222Z,66.22
2023-04-02T21:42:48.830Z,66.18
2023-04-02T21:47:52.603Z,66.36
2023-04-02T21:52:56.494Z,66.27
2023-04-02T21:58:00.274Z,66.27
2023-04-02T22:03:04.292Z,66.41
2023-04-02T22:08:07.998Z,66.47
2023-04-02T22:13:11.724Z,66.42
2023-04-02T22:18:15.582Z,66.50
2023-04-02T22:23:19.594Z,66.59
2023-04-02T22:28:25.858Z,66.68
2023-04-02T22:33:31.729Z,66.67
2023-04-02T22:38:36.423Z,66.65
2023-04-02T22:43:43.327Z,66.67
2023-04-02T22:48:48.154Z,66.67
2023-04-02T22:53:54.052Z,66.72
2023-04-02T22:58:57.922Z,66.91
2023-04-02T23:04:01.864Z,66.86
2023-04-02T23:09:05.895Z,66.99
2023-04-02T23:14:10.133Z,67.15
2023-04-02T23:19:13.818Z,67.14
2023-04-02T23:24:17.799Z,67.03
2023-04-02T23:29:21.583Z,67.17
2023-04-02T23:34:25.376Z,67.19
2023-04-02T23:39:29.504Z,67.25
2023-04-02T23:44:33.265Z,67.35
2023-04-02T23:49:36.956Z,67.28
2023-04-02T23:54:40.784Z,67.25
2023-04-02T23:59:44.579Z,67.46
